sensor_id;sensor_type;location;lat;lon;timestamp;temperature;humidity
48007;DHT22;33771;48.180;11.400;2022-07-23T00:00:55;23.00;99.90
48007;DHT22;33771;48.180;11.400;2022-07-23T00:03:20;23.00;99.90
48007;DHT22;33771;48.180;11.400;2022-07-23T00:05:46;23.00;99.90
48007;DHT22;33771;48.180;11.400;2022-07-23T00:08:11;22.90;99.90
48007;DHT22;33771;48.180;11.400;2022-07-23T00:10:37;22.80;99.90
48007;DHT22;33771;48.180;11.400;2022-07-23T00:13:03;22.80;99.90
48007;DHT22;33771;48.180;11.400;2022-07-23T00:15:29;22.70;99.90
48007;DHT22;33771;48.180;11.400;2022-07-23T00:17:55;22.70;99.90
48007;DHT22;33771;48.180;11.400;2022-07-23T00:20:20;22.60;99.90
48007;DHT22;33771;48.180;11.400;2022-07-23T00:22:51;22.60;99.90
48007;DHT22;33771;48.180;11.400;2022-07-23T00:25:17;22.60;99.90
48007;DHT22;33771;48.180;11.400;2022-07-23T00:27:43;22.60;99.90
48007;DHT22;33771;48.180;11.400;2022-07-23T00:30:09;22.60;99.90
48007;DHT22;33771;48.180;11.400;2022-07-23T00:32:55;22.60;99.90
48007;DHT22;33771;48.180;11.400;2022-07-23T00:35:26;22.60;99.90
48007;DHT22;33771;48.180;11.400;2022-07-23T00:37:53;22.60;99.90
48007;DHT22;33771;48.180;11.400;2022-07-23T00:40:18;22.70;99.90
48007;DHT22;33771;48.180;11.400;2022-07-23T00:42:44;22.70;99.90
48007;DHT22;33771;48.180;11.400;2022-07-23T00:45:10;22.70;99.90
48007;DHT22;33771;48.180;11.400;2022-07-23T00:47:36;22.70;99.90
48007;DHT22;33771;48.180;11.400;2022-07-23T00:50:03;22.70;99.90
48007;DHT22;33771;48.180;11.400;2022-07-23T00:52:29;22.70;99.90
48007;DHT22;33771;48.180;11.400;2022-07-23T00:54:55;22.70;99.90
48007;DHT22;33771;48.180;11.400;2022-07-23T00:57:21;22.70;99.90
48007;DHT22;33771;48.180;11.400;2022-07-23T00:59:46;22.60;99.90
48007;DHT22;33771;48.180;11.400;2022-07-23T01:02:12;22.70;99.90
48007;DHT22;33771;48.180;11.400;2022-07-23T01:04:37;22.70;99.90
48007;DHT22;33771;48.180;11.400;2022-07-23T01:07:03;22.70;99.90
48007;DHT22;33771;48.180;11.400;2022-07-23T01:09:29;22.70;99.90
48007;DHT22;33771;48.180;11.400;2022-07-23T01:11:56;22.70;99.90
48007;DHT22;33771;48.180;11.400;2022-07-23T01:14:22;22.90;99.90
48007;DHT22;33771;48.180;11.400;2022-07-23T01:16:48;23.00;99.90
48007;DHT22;33771;48.180;11.400;2022-07-23T01:19:15;23.00;99.90
48007;DHT22;33771;48.180;11.400;2022-07-23T01:21:42;22.70;99.90
48007;DHT22;33771;48.180;11.400;2022-07-23T01:24:09;22.00;99.90
48007;DHT22;33771;48.180;11.400;2022-07-23T01:26:35;21.30;99.90
48007;DHT22;33771;48.180;11.400;2022-07-23T01:29:01;20.50;99.90
48007;DHT22;33771;48.180;11.400;2022-07-23T01:31:27;19.80;99.90
48007;DHT22;33771;48.180;11.400;2022-07-23T01:33:53;19.30;99.90
48007;DHT22;33771;48.180;11.400;2022-07-23T01:36:19;18.90;99.90
48007;DHT22;33771;48.180;11.400;2022-07-23T01:38:44;18.60;99.90
48007;DHT22;33771;48.180;11.400;2022-07-23T01:41:10;18.40;99.90
48007;DHT22;33771;48.180;11.400;2022-07-23T01:43:35;18.30;99.90
48007;DHT22;33771;48.180;11.400;2022-07-23T01:46:01;18.20;99.90
48007;DHT22;33771;48.180;11.400;2022-07-23T01:48:27;18.00;99.90
48007;DHT22;33771;48.180;11.400;2022-07-23T01:50:52;18.00;99.90
48007;DHT22;33771;48.180;11.400;2022-07-23T01:53:18;17.90;99.90
48007;DHT22;33771;48.180;11.400;2022-07-23T01:55:44;17.90;99.90
48007;DHT22;33771;48.180;11.400;2022-07-23T01:58:09;17.80;99.90
48007;DHT22;33771;48.180;11.400;2022-07-23T02:00:35;17.80;99.90
48007;DHT22;33771;48.180;11.400;2022-07-23T02:03:01;17.80;99.90
48007;DHT22;33771;48.180;11.400;2022-07-23T02:05:26;17.80;99.90
48007;DHT22;33771;48.180;11.400;2022-07-23T02:07:54;17.70;99.90
48007;DHT22;33771;48.180;11.400;2022-07-23T02:10:20;17.80;99.90
48007;DHT22;33771;48.180;11.400;2022-07-23T02:12:46;17.70;99.90
48007;DHT22;33771;48.180;11.400;2022-07-23T02:15:11;17.70;99.90
48007;DHT22;33771;48.180;11.400;2022-07-23T02:17:37;17.70;99.90
48007;DHT22;33771;48.180;11.400;2022-07-23T02:20:04;17.80;99.90
48007;DHT22;33771;48.180;11.400;2022-07-23T02:22:30;17.80;99.90
48007;DHT22;33771;48.180;11.400;2022-07-23T02:24:55;17.80;99.90
48007;DHT22;33771;48.180;11.400;2022-07-23T02:27:21;17.80;99.90
48007;DHT22;33771;48.180;11.400;2022-07-23T02:29:47;17.70;99.90
48007;DHT22;33771;48.180;11.400;2022-07-23T02:32:12;17.70;99.90
48007;DHT22;33771;48.180;11.400;2022-07-23T02:34:38;17.70;99.90
48007;DHT22;33771;48.180;11.400;2022-07-23T02:37:04;17.70;99.90
48007;DHT22;33771;48.180;11.400;2022-07-23T02:39:29;17.70;99.90
48007;DHT22;33771;48.180;11.400;2022-07-23T02:41:55;17.80;99.90
48007;DHT22;33771;48.180;11.400;2022-07-23T02:44:20;17.80;99.90
48007;DHT22;33771;48.180;11.400;2022-07-23T02:46:46;17.80;99.90
48007;DHT22;33771;48.180;11.400;2022-07-23T02:49:12;17.90;99.90
48007;DHT22;33771;48.180;11.400;2022-07-23T02:51:37;17.90;99.90
48007;DHT22;33771;48.180;11.400;2022-07-23T02:54:03;17.90;99.90
48007;DHT22;33771;48.180;11.400;2022-07-23T02:56:28;18.00;99.90
48007;DHT22;33771;48.180;11.400;2022-07-23T02:58:54;18.00;99.90
48007;DHT22;33771;48.180;11.400;2022-07-23T03:01:19;18.00;99.90
48007;DHT22;33771;48.180;11.400;2022-07-23T03:03:45;18.00;99.90
48007;DHT22;33771;48.180;11.400;2022-07-23T03:06:11;18.10;99.90
48007;DHT22;33771;48.180;11.400;2022-07-23T03:08:37;18.10;99.90
48007;DHT22;33771;48.180;11.400;2022-07-23T03:11:02;18.00;99.90
48007;DHT22;33771;48.180;11.400;2022-07-23T03:13:28;18.00;99.90
48007;DHT22;33771;48.180;11.400;2022-07-23T03:15:54;18.00;99.90
48007;DHT22;33771;48.180;11.400;2022-07-23T03:18:20;18.00;99.90
48007;DHT22;33771;48.180;11.400;2022-07-23T03:20:45;18.00;99.90
48007;DHT22;33771;48.180;11.400;2022-07-23T03:23:11;18.00;99.90
48007;DHT22;33771;48.180;11.400;2022-07-23T03:25:37;18.10;99.90
48007;DHT22;33771;48.180;11.400;2022-07-23T03:28:02;18.10;99.90
48007;DHT22;33771;48.180;11.400;2022-07-23T03:30:28;18.00;99.90
48007;DHT22;33771;48.180;11.400;2022-07-23T03:32:53;18.00;99.90
48007;DHT22;33771;48.180;11.400;2022-07-23T03:35:19;17.90;99.90
48007;DHT22;33771;48.180;11.400;2022-07-23T03:37:44;17.90;99.90
48007;DHT22;33771;48.180;11.400;2022-07-23T03:40:10;17.90;99.90
48007;DHT22;33771;48.180;11.400;2022-07-23T03:42:36;17.90;99.90
48007;DHT22;33771;48.180;11.400;2022-07-23T03:45:03;17.90;99.90
48007;DHT22;33771;48.180;11.400;2022-07-23T03:47:28;17.90;99.90
48007;DHT22;33771;48.180;11.400;2022-07-23T03:49:54;17.90;99.90
48007;DHT22;33771;48.180;11.400;2022-07-23T03:52:19;17.90;99.90
48007;DHT22;33771;48.180;11.400;2022-07-23T03:54:45;17.90;99.90
48007;DHT22;33771;48.180;11.400;2022-07-23T03:57:11;17.80;99.90
48007;DHT22;33771;48.180;11.400;2022-07-23T03:59:36;17.80;99.90
48007;DHT22;33771;48.180;11.400;2022-07-23T04:02:02;17.80;99.90
48007;DHT22;33771;48.180;11.400;2022-07-23T04:04:27;17.80;99.90
48007;DHT22;33771;48.180;11.400;2022-07-23T04:06:53;17.80;99.90
48007;DHT22;33771;48.180;11.400;2022-07-23T04:09:18;17.80;99.90
48007;DHT22;33771;48.180;11.400;2022-07-23T04:11:44;17.80;99.90
48007;DHT22;33771;48.180;11.400;2022-07-23T04:14:09;17.80;99.90
48007;DHT22;33771;48.180;11.400;2022-07-23T04:16:35;17.80;99.90
48007;DHT22;33771;48.180;11.400;2022-07-23T04:19:00;17.80;99.90
48007;DHT22;33771;48.180;11.400;2022-07-23T04:21:26;17.80;99.90
48007;DHT22;33771;48.180;11.400;2022-07-23T04:23:52;17.80;99.90
48007;DHT22;33771;48.180;11.400;2022-07-23T04:26:17;17.80;99.90
48007;DHT22;33771;48.180;11.400;2022-07-23T04:28:43;17.80;99.90
48007;DHT22;33771;48.180;11.400;2022-07-23T04:31:08;17.90;99.90
48007;DHT22;33771;48.180;11.400;2022-07-23T04:33:34;17.90;99.90
48007;DHT22;33771;48.180;11.400;2022-07-23T04:35:59;17.90;99.90
48007;DHT22;33771;48.180;11.400;2022-07-23T04:38:25;17.90;99.90
48007;DHT22;33771;48.180;11.400;2022-07-23T04:40:50;18.00;99.90
48007;DHT22;33771;48.180;11.400;2022-07-23T04:43:16;18.00;99.90
48007;DHT22;33771;48.180;11.400;2022-07-23T04:45:42;18.00;99.90
48007;DHT22;33771;48.180;11.400;2022-07-23T04:48:07;18.10;99.90
48007;DHT22;33771;48.180;11.400;2022-07-23T04:50:33;18.10;99.90
48007;DHT22;33771;48.180;11.400;2022-07-23T04:52:58;18.20;99.90
48007;DHT22;33771;48.180;11.400;2022-07-23T04:55:24;18.20;99.90
48007;DHT22;33771;48.180;11.400;2022-07-23T04:57:50;18.20;99.90
48007;DHT22;33771;48.180;11.400;2022-07-23T05:00:15;18.20;99.90
48007;DHT22;33771;48.180;11.400;2022-07-23T05:02:41;18.20;99.90
48007;DHT22;33771;48.180;11.400;2022-07-23T05:05:07;18.30;99.90
48007;DHT22;33771;48.180;11.400;2022-07-23T05:07:33;18.30;99.90
48007;DHT22;33771;48.180;11.400;2022-07-23T05:09:58;18.20;99.90
48007;DHT22;33771;48.180;11.400;2022-07-23T05:12:24;18.30;99.90
48007;DHT22;33771;48.180;11.400;2022-07-23T05:14:49;18.30;99.90
48007;DHT22;33771;48.180;11.400;2022-07-23T05:17:15;18.30;99.90
48007;DHT22;33771;48.180;11.400;2022-07-23T05:19:40;18.30;99.90
48007;DHT22;33771;48.180;11.400;2022-07-23T05:22:06;18.30;99.90
48007;DHT22;33771;48.180;11.400;2022-07-23T05:24:31;18.20;99.90
48007;DHT22;33771;48.180;11.400;2022-07-23T05:26:57;18.20;99.90
48007;DHT22;33771;48.180;11.400;2022-07-23T05:29:23;18.20;99.90
48007;DHT22;33771;48.180;11.400;2022-07-23T05:31:48;18.20;99.90
48007;DHT22;33771;48.180;11.400;2022-07-23T05:34:14;18.20;99.90
48007;DHT22;33771;48.180;11.400;2022-07-23T05:36:39;18.20;99.90
48007;DHT22;33771;48.180;11.400;2022-07-23T05:39:05;18.30;99.90
48007;DHT22;33771;48.180;11.400;2022-07-23T05:41:30;18.30;99.90
48007;DHT22;33771;48.180;11.400;2022-07-23T05:43:56;18.30;99.90
48007;DHT22;33771;48.180;11.400;2022-07-23T05:46:21;18.30;99.90
48007;DHT22;33771;48.180;11.400;2022-07-23T05:48:47;18.30;99.90
48007;DHT22;33771;48.180;11.400;2022-07-23T05:51:22;18.30;99.90
48007;DHT22;33771;48.180;11.400;2022-07-23T05:53:48;18.40;99.90
48007;DHT22;33771;48.180;11.400;2022-07-23T05:56:15;18.40;99.90
48007;DHT22;33771;48.180;11.400;2022-07-23T05:58:41;18.40;99.90
48007;DHT22;33771;48.180;11.400;2022-07-23T06:01:06;18.40;99.90
48007;DHT22;33771;48.180;11.400;2022-07-23T06:03:32;18.40;99.90
48007;DHT22;33771;48.180;11.400;2022-07-23T06:05:57;18.40;99.90
48007;DHT22;33771;48.180;11.400;2022-07-23T06:08:23;18.40;99.90
48007;DHT22;33771;48.180;11.400;2022-07-23T06:10:49;18.50;99.90
48007;DHT22;33771;48.180;11.400;2022-07-23T06:13:14;18.50;99.90
48007;DHT22;33771;48.180;11.400;2022-07-23T06:15:41;18.50;99.90
48007;DHT22;33771;48.180;11.400;2022-07-23T06:18:06;18.60;99.90
48007;DHT22;33771;48.180;11.400;2022-07-23T06:20:32;18.50;99.90
48007;DHT22;33771;48.180;11.400;2022-07-23T06:22:57;18.60;99.90
48007;DHT22;33771;48.180;11.400;2022-07-23T06:25:23;18.50;99.90
48007;DHT22;33771;48.180;11.400;2022-07-23T06:27:49;18.60;99.90
48007;DHT22;33771;48.180;11.400;2022-07-23T06:30:15;18.60;99.90
48007;DHT22;33771;48.180;11.400;2022-07-23T06:32:44;18.70;99.90
48007;DHT22;33771;48.180;11.400;2022-07-23T06:35:10;18.80;99.90
48007;DHT22;33771;48.180;11.400;2022-07-23T06:37:36;18.90;99.90
48007;DHT22;33771;48.180;11.400;2022-07-23T06:40:02;18.90;99.90
48007;DHT22;33771;48.180;11.400;2022-07-23T06:42:27;19.00;99.90
48007;DHT22;33771;48.180;11.400;2022-07-23T06:44:53;19.00;99.90
48007;DHT22;33771;48.180;11.400;2022-07-23T06:47:18;19.10;99.90
48007;DHT22;33771;48.180;11.400;2022-07-23T06:49:44;19.20;99.90
48007;DHT22;33771;48.180;11.400;2022-07-23T06:52:09;19.20;99.90
48007;DHT22;33771;48.180;11.400;2022-07-23T06:54:35;19.20;99.90
48007;DHT22;33771;48.180;11.400;2022-07-23T06:57:01;19.20;99.90
48007;DHT22;33771;48.180;11.400;2022-07-23T06:59:27;19.30;99.90
48007;DHT22;33771;48.180;11.400;2022-07-23T07:01:52;19.30;99.90
48007;DHT22;33771;48.180;11.400;2022-07-23T07:04:18;19.30;99.90
48007;DHT22;33771;48.180;11.400;2022-07-23T07:06:43;19.40;99.90
48007;DHT22;33771;48.180;11.400;2022-07-23T07:09:09;19.40;99.90
48007;DHT22;33771;48.180;11.400;2022-07-23T07:11:35;19.40;99.90
48007;DHT22;33771;48.180;11.400;2022-07-23T07:14:00;19.40;99.90
48007;DHT22;33771;48.180;11.400;2022-07-23T07:16:26;19.40;99.90
48007;DHT22;33771;48.180;11.400;2022-07-23T07:18:51;19.40;99.90
48007;DHT22;33771;48.180;11.400;2022-07-23T07:21:17;19.50;99.90
48007;DHT22;33771;48.180;11.400;2022-07-23T07:23:42;19.40;99.90
48007;DHT22;33771;48.180;11.400;2022-07-23T07:26:08;19.50;99.90
48007;DHT22;33771;48.180;11.400;2022-07-23T07:28:34;19.50;99.90
48007;DHT22;33771;48.180;11.400;2022-07-23T07:30:59;19.50;99.90
48007;DHT22;33771;48.180;11.400;2022-07-23T07:33:25;19.50;99.90
48007;DHT22;33771;48.180;11.400;2022-07-23T07:35:50;19.60;99.90
48007;DHT22;33771;48.180;11.400;2022-07-23T07:38:16;19.60;99.90
48007;DHT22;33771;48.180;11.400;2022-07-23T07:40:41;19.60;99.90
48007;DHT22;33771;48.180;11.400;2022-07-23T07:43:07;19.60;99.90
48007;DHT22;33771;48.180;11.400;2022-07-23T07:45:33;19.50;99.90
48007;DHT22;33771;48.180;11.400;2022-07-23T07:47:58;19.60;99.90
48007;DHT22;33771;48.180;11.400;2022-07-23T07:50:24;19.60;99.90
48007;DHT22;33771;48.180;11.400;2022-07-23T07:52:50;19.50;99.90
48007;DHT22;33771;48.180;11.400;2022-07-23T07:55:15;19.50;99.90
48007;DHT22;33771;48.180;11.400;2022-07-23T07:57:41;19.50;99.90
48007;DHT22;33771;48.180;11.400;2022-07-23T08:00:08;19.60;99.90
48007;DHT22;33771;48.180;11.400;2022-07-23T08:05:09;19.60;99.90
48007;DHT22;33771;48.180;11.400;2022-07-23T08:07:35;19.60;99.90
48007;DHT22;33771;48.180;11.400;2022-07-23T08:10:02;19.60;99.90
48007;DHT22;33771;48.180;11.400;2022-07-23T08:12:30;19.70;99.90
48007;DHT22;33771;48.180;11.400;2022-07-23T08:15:02;19.70;99.90
48007;DHT22;33771;48.180;11.400;2022-07-23T08:17:28;19.80;99.90
48007;DHT22;33771;48.180;11.400;2022-07-23T08:19:53;19.90;99.90
48007;DHT22;33771;48.180;11.400;2022-07-23T08:22:19;20.00;99.90
48007;DHT22;33771;48.180;11.400;2022-07-23T08:24:44;20.10;99.90
48007;DHT22;33771;48.180;11.400;2022-07-23T08:27:10;20.20;99.90
48007;DHT22;33771;48.180;11.400;2022-07-23T08:29:35;20.30;99.90
48007;DHT22;33771;48.180;11.400;2022-07-23T08:32:01;20.30;99.90
48007;DHT22;33771;48.180;11.400;2022-07-23T08:34:26;20.40;99.90
48007;DHT22;33771;48.180;11.400;2022-07-23T08:36:52;20.50;99.90
48007;DHT22;33771;48.180;11.400;2022-07-23T08:39:17;20.50;99.90
48007;DHT22;33771;48.180;11.400;2022-07-23T08:41:43;20.70;99.90
48007;DHT22;33771;48.180;11.400;2022-07-23T08:44:08;20.90;99.90
48007;DHT22;33771;48.180;11.400;2022-07-23T08:46:35;21.10;99.90
48007;DHT22;33771;48.180;11.400;2022-07-23T08:49:01;21.30;99.90
48007;DHT22;33771;48.180;11.400;2022-07-23T08:51:28;21.50;99.90
48007;DHT22;33771;48.180;11.400;2022-07-23T08:53:56;21.70;99.90
48007;DHT22;33771;48.180;11.400;2022-07-23T08:56:22;21.80;99.90
48007;DHT22;33771;48.180;11.400;2022-07-23T08:58:47;22.00;99.90
48007;DHT22;33771;48.180;11.400;2022-07-23T09:01:14;22.10;99.90
48007;DHT22;33771;48.180;11.400;2022-07-23T09:03:39;22.10;99.90
48007;DHT22;33771;48.180;11.400;2022-07-23T09:06:05;22.10;99.90
48007;DHT22;33771;48.180;11.400;2022-07-23T09:08:42;22.10;99.90
48007;DHT22;33771;48.180;11.400;2022-07-23T09:11:26;22.10;99.90
48007;DHT22;33771;48.180;11.400;2022-07-23T09:13:53;22.00;99.90
48007;DHT22;33771;48.180;11.400;2022-07-23T09:16:26;22.10;99.90
48007;DHT22;33771;48.180;11.400;2022-07-23T09:18:55;22.20;99.90
48007;DHT22;33771;48.180;11.400;2022-07-23T09:21:26;22.30;99.90
48007;DHT22;33771;48.180;11.400;2022-07-23T09:26:28;22.70;99.90
48007;DHT22;33771;48.180;11.400;2022-07-23T09:31:49;23.10;99.90
48007;DHT22;33771;48.180;11.400;2022-07-23T09:34:24;23.40;99.90
48007;DHT22;33771;48.180;11.400;2022-07-23T09:36:52;23.70;99.90
48007;DHT22;33771;48.180;11.400;2022-07-23T09:39:31;24.10;99.90
48007;DHT22;33771;48.180;11.400;2022-07-23T09:41:58;24.60;99.90
48007;DHT22;33771;48.180;11.400;2022-07-23T09:44:24;24.90;99.90
48007;DHT22;33771;48.180;11.400;2022-07-23T09:46:50;25.30;99.90
48007;DHT22;33771;48.180;11.400;2022-07-23T09:49:23;25.60;99.90
48007;DHT22;33771;48.180;11.400;2022-07-23T09:51:58;25.60;99.90
48007;DHT22;33771;48.180;11.400;2022-07-23T09:54:27;25.80;99.90
48007;DHT22;33771;48.180;11.400;2022-07-23T09:56:55;26.20;99.90
48007;DHT22;33771;48.180;11.400;2022-07-23T09:59:34;26.40;99.90
48007;DHT22;33771;48.180;11.400;2022-07-23T10:02:01;26.70;99.90
48007;DHT22;33771;48.180;11.400;2022-07-23T10:04:30;26.80;99.90
48007;DHT22;33771;48.180;11.400;2022-07-23T10:06:58;26.80;99.90
48007;DHT22;33771;48.180;11.400;2022-07-23T10:09:30;26.80;99.90
48007;DHT22;33771;48.180;11.400;2022-07-23T10:12:02;26.70;99.90
48007;DHT22;33771;48.180;11.400;2022-07-23T10:14:35;26.60;99.90
48007;DHT22;33771;48.180;11.400;2022-07-23T10:17:15;26.40;99.90
48007;DHT22;33771;48.180;11.400;2022-07-23T10:19:41;26.30;99.90
48007;DHT22;33771;48.180;11.400;2022-07-23T10:22:19;26.50;99.90
48007;DHT22;33771;48.180;11.400;2022-07-23T10:31:10;27.60;99.90
48007;DHT22;33771;48.180;11.400;2022-07-23T10:36:21;28.00;99.90
48007;DHT22;33771;48.180;11.400;2022-07-23T10:39:08;28.10;99.90
48007;DHT22;33771;48.180;11.400;2022-07-23T10:41:41;28.10;99.90
48007;DHT22;33771;48.180;11.400;2022-07-23T10:44:07;28.00;99.90
48007;DHT22;33771;48.180;11.400;2022-07-23T10:46:34;27.80;99.90
48007;DHT22;33771;48.180;11.400;2022-07-23T10:49:25;27.70;99.90
48007;DHT22;33771;48.180;11.400;2022-07-23T10:52:20;27.70;99.90
48007;DHT22;33771;48.180;11.400;2022-07-23T10:54:48;27.70;99.90
48007;DHT22;33771;48.180;11.400;2022-07-23T10:57:16;27.70;99.90
48007;DHT22;33771;48.180;11.400;2022-07-23T11:02:29;27.60;99.90
48007;DHT22;33771;48.180;11.400;2022-07-23T11:05:01;27.60;99.90
48007;DHT22;33771;48.180;11.400;2022-07-23T11:07:27;27.50;99.90
48007;DHT22;33771;48.180;11.400;2022-07-23T11:09:53;27.40;99.90
48007;DHT22;33771;48.180;11.400;2022-07-23T11:17:39;27.30;99.90
48007;DHT22;33771;48.180;11.400;2022-07-23T11:22:47;27.00;99.90
48007;DHT22;33771;48.180;11.400;2022-07-23T11:27:48;26.80;99.90
48007;DHT22;33771;48.180;11.400;2022-07-23T11:33:37;26.30;99.90
48007;DHT22;33771;48.180;11.400;2022-07-23T11:35:40;26.10;99.90
48007;DHT22;33771;48.180;11.400;2022-07-23T11:40:38;26.00;99.90
48007;DHT22;33771;48.180;11.400;2022-07-23T11:43:06;25.80;99.90
48007;DHT22;33771;48.180;11.400;2022-07-23T11:45:34;25.80;99.90
48007;DHT22;33771;48.180;11.400;2022-07-23T11:48:00;25.70;99.90
48007;DHT22;33771;48.180;11.400;2022-07-23T11:50:26;25.70;99.90
48007;DHT22;33771;48.180;11.400;2022-07-23T11:52:53;25.80;99.90
48007;DHT22;33771;48.180;11.400;2022-07-23T11:55:19;25.80;99.90
48007;DHT22;33771;48.180;11.400;2022-07-23T11:57:44;25.80;99.90
48007;DHT22;33771;48.180;11.400;2022-07-23T12:02:37;25.70;99.90
48007;DHT22;33771;48.180;11.400;2022-07-23T12:05:04;25.60;99.90
48007;DHT22;33771;48.180;11.400;2022-07-23T12:07:31;25.50;99.90
48007;DHT22;33771;48.180;11.400;2022-07-23T12:10:17;25.50;99.90
48007;DHT22;33771;48.180;11.400;2022-07-23T12:12:46;25.50;99.90
48007;DHT22;33771;48.180;11.400;2022-07-23T12:15:14;25.50;99.90
48007;DHT22;33771;48.180;11.400;2022-07-23T12:17:42;25.50;99.90
48007;DHT22;33771;48.180;11.400;2022-07-23T12:20:12;25.50;99.90
48007;DHT22;33771;48.180;11.400;2022-07-23T12:22:40;25.50;99.90
48007;DHT22;33771;48.180;11.400;2022-07-23T12:25:15;25.60;99.90
48007;DHT22;33771;48.180;11.400;2022-07-23T12:27:41;25.60;99.90
48007;DHT22;33771;48.180;11.400;2022-07-23T12:30:23;25.50;99.90
48007;DHT22;33771;48.180;11.400;2022-07-23T12:32:51;25.50;99.90
48007;DHT22;33771;48.180;11.400;2022-07-23T12:35:18;25.50;99.90
48007;DHT22;33771;48.180;11.400;2022-07-23T12:37:46;25.60;99.90
48007;DHT22;33771;48.180;11.400;2022-07-23T12:42:54;25.50;99.90
48007;DHT22;33771;48.180;11.400;2022-07-23T12:45:21;25.40;99.90
48007;DHT22;33771;48.180;11.400;2022-07-23T12:47:54;25.30;99.90
48007;DHT22;33771;48.180;11.400;2022-07-23T12:53:03;25.30;99.90
48007;DHT22;33771;48.180;11.400;2022-07-23T12:55:29;25.40;99.90
48007;DHT22;33771;48.180;11.400;2022-07-23T12:58:06;25.30;99.90
48007;DHT22;33771;48.180;11.400;2022-07-23T13:05:56;25.50;99.90
48007;DHT22;33771;48.180;11.400;2022-07-23T13:08:24;25.40;99.90
48007;DHT22;33771;48.180;11.400;2022-07-23T13:10:50;25.40;99.90
48007;DHT22;33771;48.180;11.400;2022-07-23T13:13:19;25.30;99.90
48007;DHT22;33771;48.180;11.400;2022-07-23T13:15:45;25.20;99.90
48007;DHT22;33771;48.180;11.400;2022-07-23T13:18:11;25.10;99.90
48007;DHT22;33771;48.180;11.400;2022-07-23T13:20:37;25.00;99.90
48007;DHT22;33771;48.180;11.400;2022-07-23T13:23:05;25.00;99.90
48007;DHT22;33771;48.180;11.400;2022-07-23T13:25:31;25.00;99.90
48007;DHT22;33771;48.180;11.400;2022-07-23T13:27:56;25.00;99.90
48007;DHT22;33771;48.180;11.400;2022-07-23T13:30:22;24.90;99.90
48007;DHT22;33771;48.180;11.400;2022-07-23T13:32:48;25.00;99.90
48007;DHT22;33771;48.180;11.400;2022-07-23T13:35:14;25.00;99.90
48007;DHT22;33771;48.180;11.400;2022-07-23T13:37:40;25.10;99.90
48007;DHT22;33771;48.180;11.400;2022-07-23T13:40:06;25.20;99.90
48007;DHT22;33771;48.180;11.400;2022-07-23T13:42:32;25.30;99.90
48007;DHT22;33771;48.180;11.400;2022-07-23T13:44:57;25.40;99.90
48007;DHT22;33771;48.180;11.400;2022-07-23T13:47:23;25.40;99.90
48007;DHT22;33771;48.180;11.400;2022-07-23T13:49:48;25.40;99.90
48007;DHT22;33771;48.180;11.400;2022-07-23T13:52:14;25.40;99.90
48007;DHT22;33771;48.180;11.400;2022-07-23T13:54:40;25.50;99.90
48007;DHT22;33771;48.180;11.400;2022-07-23T13:57:06;25.50;99.90
48007;DHT22;33771;48.180;11.400;2022-07-23T13:59:33;25.40;99.90
48007;DHT22;33771;48.180;11.400;2022-07-23T14:01:58;25.40;99.90
48007;DHT22;33771;48.180;11.400;2022-07-23T14:04:24;25.40;99.90
48007;DHT22;33771;48.180;11.400;2022-07-23T14:06:49;25.30;99.90
48007;DHT22;33771;48.180;11.400;2022-07-23T14:09:15;25.30;99.90
48007;DHT22;33771;48.180;11.400;2022-07-23T14:11:40;25.10;99.90
48007;DHT22;33771;48.180;11.400;2022-07-23T14:14:06;25.10;99.90
48007;DHT22;33771;48.180;11.400;2022-07-23T14:16:31;25.10;99.90
48007;DHT22;33771;48.180;11.400;2022-07-23T14:18:57;25.00;99.90
48007;DHT22;33771;48.180;11.400;2022-07-23T14:21:23;24.90;99.90
48007;DHT22;33771;48.180;11.400;2022-07-23T14:23:49;25.00;99.90
48007;DHT22;33771;48.180;11.400;2022-07-23T14:26:14;25.00;99.90
48007;DHT22;33771;48.180;11.400;2022-07-23T14:28:40;25.10;99.90
48007;DHT22;33771;48.180;11.400;2022-07-23T14:31:05;25.40;99.90
48007;DHT22;33771;48.180;11.400;2022-07-23T14:33:31;25.50;99.90
48007;DHT22;33771;48.180;11.400;2022-07-23T14:35:56;25.60;99.90
48007;DHT22;33771;48.180;11.400;2022-07-23T14:38:24;25.70;99.90
48007;DHT22;33771;48.180;11.400;2022-07-23T14:40:49;25.80;99.90
48007;DHT22;33771;48.180;11.400;2022-07-23T14:43:15;25.70;99.90
48007;DHT22;33771;48.180;11.400;2022-07-23T14:45:40;25.90;99.90
48007;DHT22;33771;48.180;11.400;2022-07-23T14:48:06;25.70;99.90
48007;DHT22;33771;48.180;11.400;2022-07-23T14:50:32;25.60;99.90
48007;DHT22;33771;48.180;11.400;2022-07-23T14:52:57;25.60;99.90
48007;DHT22;33771;48.180;11.400;2022-07-23T14:55:23;25.60;99.90
48007;DHT22;33771;48.180;11.400;2022-07-23T14:57:48;25.60;99.90
48007;DHT22;33771;48.180;11.400;2022-07-23T15:00:14;25.60;99.90
48007;DHT22;33771;48.180;11.400;2022-07-23T15:02:40;25.60;99.90
48007;DHT22;33771;48.180;11.400;2022-07-23T15:05:06;25.60;99.90
48007;DHT22;33771;48.180;11.400;2022-07-23T15:07:31;25.50;99.90
48007;DHT22;33771;48.180;11.400;2022-07-23T15:09:58;25.60;99.90
48007;DHT22;33771;48.180;11.400;2022-07-23T15:12:23;25.70;99.90
48007;DHT22;33771;48.180;11.400;2022-07-23T15:14:49;25.70;99.90
48007;DHT22;33771;48.180;11.400;2022-07-23T15:17:15;25.70;99.90
48007;DHT22;33771;48.180;11.400;2022-07-23T15:19:41;25.60;99.90
48007;DHT22;33771;48.180;11.400;2022-07-23T15:22:06;25.50;99.90
48007;DHT22;33771;48.180;11.400;2022-07-23T15:24:32;25.50;99.90
48007;DHT22;33771;48.180;11.400;2022-07-23T15:26:58;25.60;99.90
48007;DHT22;33771;48.180;11.400;2022-07-23T15:29:23;25.70;99.90
48007;DHT22;33771;48.180;11.400;2022-07-23T15:31:49;25.70;99.90
48007;DHT22;33771;48.180;11.400;2022-07-23T15:34:15;25.70;99.90
48007;DHT22;33771;48.180;11.400;2022-07-23T15:36:40;25.70;99.90
48007;DHT22;33771;48.180;11.400;2022-07-23T15:39:07;25.80;99.90
48007;DHT22;33771;48.180;11.400;2022-07-23T15:41:33;25.90;99.90
48007;DHT22;33771;48.180;11.400;2022-07-23T15:43:58;25.90;99.90
48007;DHT22;33771;48.180;11.400;2022-07-23T15:46:24;25.90;99.90
48007;DHT22;33771;48.180;11.400;2022-07-23T15:48:50;25.80;99.90
48007;DHT22;33771;48.180;11.400;2022-07-23T15:51:16;25.80;99.90
48007;DHT22;33771;48.180;11.400;2022-07-23T15:53:48;25.80;99.90
48007;DHT22;33771;48.180;11.400;2022-07-23T15:56:14;25.70;99.90
48007;DHT22;33771;48.180;11.400;2022-07-23T15:58:39;25.70;99.90
48007;DHT22;33771;48.180;11.400;2022-07-23T16:01:05;25.70;99.90